sensor_id;sensor_type;location;lat;lon;timestamp;P1;durP1;ratioP1;P2;durP2;ratioP2
5117;SDS011;2578;51.622;7.046;2023-07-02T00:01:48;13.23;;;7.67;;
5117;SDS011;2578;51.622;7.046;2023-07-02T00:04:15;7.83;;;7.23;;
5117;SDS011;2578;51.622;7.046;2023-07-02T00:06:44;7.03;;;6.53;;
5117;SDS011;2578;51.622;7.046;2023-07-02T00:09:13;7.43;;;6.83;;
5117;SDS011;2578;51.622;7.046;2023-07-02T00:11:40;10.83;;;7.93;;
5117;SDS011;2578;51.622;7.046;2023-07-02T00:14:11;7.30;;;6.80;;
5117;SDS011;2578;51.622;7.046;2023-07-02T00:16:38;8.03;;;7.30;;
5117;SDS011;2578;51.622;7.046;2023-07-02T00:19:06;8.07;;;7.47;;
5117;SDS011;2578;51.622;7.046;2023-07-02T00:21:31;7.00;;;6.50;;
5117;SDS011;2578;51.622;7.046;2023-07-02T00:23:58;9.70;;;8.70;;
5117;SDS011;2578;51.622;7.046;2023-07-02T00:26:25;10.13;;;7.83;;
5117;SDS011;2578;51.622;7.046;2023-07-02T00:28:52;8.87;;;8.07;;
5117;SDS011;2578;51.622;7.046;2023-07-02T00:31:19;6.80;;;6.30;;
5117;SDS011;2578;51.622;7.046;2023-07-02T00:33:44;6.93;;;6.40;;
5117;SDS011;2578;51.622;7.046;2023-07-02T00:36:10;9.93;;;8.60;;
5117;SDS011;2578;51.622;7.046;2023-07-02T00:38:43;8.10;;;7.43;;
5117;SDS011;2578;51.622;7.046;2023-07-02T00:41:10;6.90;;;6.40;;
5117;SDS011;2578;51.622;7.046;2023-07-02T00:43:36;6.90;;;6.40;;
5117;SDS011;2578;51.622;7.046;2023-07-02T00:46:04;8.43;;;7.50;;
5117;SDS011;2578;51.622;7.046;2023-07-02T00:48:30;7.97;;;7.27;;
5117;SDS011;2578;51.622;7.046;2023-07-02T00:50:57;7.57;;;6.80;;
5117;SDS011;2578;51.622;7.046;2023-07-02T00:53:22;7.87;;;7.23;;
5117;SDS011;2578;51.622;7.046;2023-07-02T00:55:48;7.80;;;7.10;;
5117;SDS011;2578;51.622;7.046;2023-07-02T00:58:14;8.07;;;7.40;;
5117;SDS011;2578;51.622;7.046;2023-07-02T01:00:40;11.13;;;9.10;;
5117;SDS011;2578;51.622;7.046;2023-07-02T01:03:07;8.10;;;7.40;;
5117;SDS011;2578;51.622;7.046;2023-07-02T01:05:32;7.00;;;6.40;;
5117;SDS011;2578;51.622;7.046;2023-07-02T01:08:02;7.30;;;6.70;;
5117;SDS011;2578;51.622;7.046;2023-07-02T01:10:28;7.67;;;6.97;;
5117;SDS011;2578;51.622;7.046;2023-07-02T01:12:56;7.10;;;6.50;;
5117;SDS011;2578;51.622;7.046;2023-07-02T01:15:28;8.03;;;7.33;;
5117;SDS011;2578;51.622;7.046;2023-07-02T01:17:55;11.27;;;7.13;;
5117;SDS011;2578;51.622;7.046;2023-07-02T01:20:21;6.70;;;6.20;;
5117;SDS011;2578;51.622;7.046;2023-07-02T01:22:48;8.87;;;8.07;;
5117;SDS011;2578;51.622;7.046;2023-07-02T01:25:16;7.67;;;6.97;;
5117;SDS011;2578;51.622;7.046;2023-07-02T01:27:43;9.33;;;7.30;;
5117;SDS011;2578;51.622;7.046;2023-07-02T01:30:09;6.90;;;6.30;;
5117;SDS011;2578;51.622;7.046;2023-07-02T01:32:35;7.57;;;6.80;;
5117;SDS011;2578;51.622;7.046;2023-07-02T01:35:02;7.53;;;6.93;;
5117;SDS011;2578;51.622;7.046;2023-07-02T01:37:28;9.20;;;8.40;;
5117;SDS011;2578;51.622;7.046;2023-07-02T01:39:53;7.20;;;6.60;;
5117;SDS011;2578;51.622;7.046;2023-07-02T01:42:19;7.80;;;7.03;;
5117;SDS011;2578;51.622;7.046;2023-07-02T01:44:48;9.50;;;8.60;;
5117;SDS011;2578;51.622;7.046;2023-07-02T01:47:16;9.27;;;8.47;;
5117;SDS011;2578;51.622;7.046;2023-07-02T01:49:42;7.63;;;6.53;;
5117;SDS011;2578;51.622;7.046;2023-07-02T01:52:08;7.30;;;6.70;;
5117;SDS011;2578;51.622;7.046;2023-07-02T01:54:35;11.27;;;9.40;;
5117;SDS011;2578;51.622;7.046;2023-07-02T01:57:00;6.40;;;5.90;;
5117;SDS011;2578;51.622;7.046;2023-07-02T01:59:26;13.70;;;6.50;;
5117;SDS011;2578;51.622;7.046;2023-07-02T02:01:52;6.77;;;6.17;;
5117;SDS011;2578;51.622;7.046;2023-07-02T02:04:18;6.50;;;5.93;;
5117;SDS011;2578;51.622;7.046;2023-07-02T02:06:44;6.23;;;5.73;;
5117;SDS011;2578;51.622;7.046;2023-07-02T02:09:10;7.47;;;6.70;;
5117;SDS011;2578;51.622;7.046;2023-07-02T02:11:40;6.07;;;5.57;;
5117;SDS011;2578;51.622;7.046;2023-07-02T02:14:12;5.73;;;5.23;;
5117;SDS011;2578;51.622;7.046;2023-07-02T02:16:37;8.77;;;7.87;;
5117;SDS011;2578;51.622;7.046;2023-07-02T02:19:03;8.33;;;7.53;;
5117;SDS011;2578;51.622;7.046;2023-07-02T02:21:30;7.37;;;6.77;;
5117;SDS011;2578;51.622;7.046;2023-07-02T02:23:56;6.67;;;6.07;;
5117;SDS011;2578;51.622;7.046;2023-07-02T02:26:21;9.07;;;7.73;;
5117;SDS011;2578;51.622;7.046;2023-07-02T02:28:48;8.20;;;7.50;;
5117;SDS011;2578;51.622;7.046;2023-07-02T02:31:14;9.80;;;8.33;;
5117;SDS011;2578;51.622;7.046;2023-07-02T02:33:40;5.70;;;5.20;;
5117;SDS011;2578;51.622;7.046;2023-07-02T02:36:06;5.93;;;5.33;;
5117;SDS011;2578;51.622;7.046;2023-07-02T02:38:32;6.43;;;5.93;;
5117;SDS011;2578;51.622;7.046;2023-07-02T02:40:59;12.53;;;6.50;;
5117;SDS011;2578;51.622;7.046;2023-07-02T02:43:26;6.97;;;6.37;;
5117;SDS011;2578;51.622;7.046;2023-07-02T02:45:52;7.33;;;6.23;;
5117;SDS011;2578;51.622;7.046;2023-07-02T02:48:18;9.77;;;7.90;;
5117;SDS011;2578;51.622;7.046;2023-07-02T02:50:43;7.53;;;6.83;;
5117;SDS011;2578;51.622;7.046;2023-07-02T02:53:10;8.90;;;6.10;;
5117;SDS011;2578;51.622;7.046;2023-07-02T02:55:36;8.27;;;7.40;;
5117;SDS011;2578;51.622;7.046;2023-07-02T02:58:02;7.83;;;6.87;;
5117;SDS011;2578;51.622;7.046;2023-07-02T03:00:28;8.13;;;7.40;;
5117;SDS011;2578;51.622;7.046;2023-07-02T03:02:54;8.17;;;7.10;;
5117;SDS011;2578;51.622;7.046;2023-07-02T03:05:20;15.70;;;11.47;;
5117;SDS011;2578;51.622;7.046;2023-07-02T03:07:47;6.60;;;6.00;;
5117;SDS011;2578;51.622;7.046;2023-07-02T03:10:12;7.87;;;7.03;;
5117;SDS011;2578;51.622;7.046;2023-07-02T03:12:38;9.40;;;8.43;;
5117;SDS011;2578;51.622;7.046;2023-07-02T03:15:04;19.60;;;11.67;;
5117;SDS011;2578;51.622;7.046;2023-07-02T03:17:30;9.60;;;8.17;;
5117;SDS011;2578;51.622;7.046;2023-07-02T03:19:56;8.57;;;6.80;;
5117;SDS011;2578;51.622;7.046;2023-07-02T03:22:22;8.67;;;7.87;;
5117;SDS011;2578;51.622;7.046;2023-07-02T03:24:47;21.33;;;10.20;;
5117;SDS011;2578;51.622;7.046;2023-07-02T03:27:13;8.73;;;7.60;;
5117;SDS011;2578;51.622;7.046;2023-07-02T03:29:39;14.60;;;9.70;;
5117;SDS011;2578;51.622;7.046;2023-07-02T03:32:05;7.40;;;6.80;;
5117;SDS011;2578;51.622;7.046;2023-07-02T03:34:31;7.43;;;6.83;;
5117;SDS011;2578;51.622;7.046;2023-07-02T03:36:57;9.20;;;7.27;;
5117;SDS011;2578;51.622;7.046;2023-07-02T03:39:23;7.50;;;6.90;;
5117;SDS011;2578;51.622;7.046;2023-07-02T03:41:49;8.60;;;7.57;;
5117;SDS011;2578;51.622;7.046;2023-07-02T03:44:16;9.70;;;8.30;;
5117;SDS011;2578;51.622;7.046;2023-07-02T03:46:42;9.70;;;8.70;;
5117;SDS011;2578;51.622;7.046;2023-07-02T03:49:08;7.27;;;6.67;;
5117;SDS011;2578;51.622;7.046;2023-07-02T03:51:34;9.57;;;7.33;;
5117;SDS011;2578;51.622;7.046;2023-07-02T03:53:59;7.00;;;6.50;;
5117;SDS011;2578;51.622;7.046;2023-07-02T03:56:25;8.80;;;7.13;;
5117;SDS011;2578;51.622;7.046;2023-07-02T03:58:51;15.13;;;9.13;;
5117;SDS011;2578;51.622;7.046;2023-07-02T04:01:17;7.37;;;6.27;;
5117;SDS011;2578;51.622;7.046;2023-07-02T04:03:49;6.33;;;5.83;;
5117;SDS011;2578;51.622;7.046;2023-07-02T04:06:16;6.20;;;5.70;;
5117;SDS011;2578;51.622;7.046;2023-07-02T04:08:42;15.70;;;7.80;;
5117;SDS011;2578;51.622;7.046;2023-07-02T04:11:11;8.63;;;7.27;;
5117;SDS011;2578;51.622;7.046;2023-07-02T04:13:37;6.67;;;6.17;;
5117;SDS011;2578;51.622;7.046;2023-07-02T04:16:04;8.63;;;7.83;;
5117;SDS011;2578;51.622;7.046;2023-07-02T04:18:30;8.30;;;7.70;;
5117;SDS011;2578;51.622;7.046;2023-07-02T04:20:56;6.90;;;6.40;;
5117;SDS011;2578;51.622;7.046;2023-07-02T04:23:23;7.20;;;6.60;;
5117;SDS011;2578;51.622;7.046;2023-07-02T04:25:49;9.33;;;8.30;;
5117;SDS011;2578;51.622;7.046;2023-07-02T04:28:15;9.17;;;8.03;;
5117;SDS011;2578;51.622;7.046;2023-07-02T04:30:41;8.83;;;8.07;;
5117;SDS011;2578;51.622;7.046;2023-07-02T04:33:07;8.57;;;7.97;;
5117;SDS011;2578;51.622;7.046;2023-07-02T04:35:33;12.97;;;9.43;;
5117;SDS011;2578;51.622;7.046;2023-07-02T04:37:59;17.03;;;9.20;;
5117;SDS011;2578;51.622;7.046;2023-07-02T04:40:25;7.87;;;7.27;;
5117;SDS011;2578;51.622;7.046;2023-07-02T04:42:52;8.33;;;7.63;;
5117;SDS011;2578;51.622;7.046;2023-07-02T04:45:22;13.03;;;10.57;;
5117;SDS011;2578;51.622;7.046;2023-07-02T04:47:49;10.03;;;8.77;;
5117;SDS011;2578;51.622;7.046;2023-07-02T04:50:16;8.30;;;7.70;;
5117;SDS011;2578;51.622;7.046;2023-07-02T04:52:42;8.23;;;7.57;;
5117;SDS011;2578;51.622;7.046;2023-07-02T04:55:08;8.40;;;7.60;;
5117;SDS011;2578;51.622;7.046;2023-07-02T04:57:34;6.77;;;6.17;;
5117;SDS011;2578;51.622;7.046;2023-07-02T05:00:00;6.97;;;6.37;;
5117;SDS011;2578;51.622;7.046;2023-07-02T05:02:28;9.43;;;7.30;;
5117;SDS011;2578;51.622;7.046;2023-07-02T05:04:54;7.20;;;6.60;;
5117;SDS011;2578;51.622;7.046;2023-07-02T05:07:20;8.73;;;7.23;;
5117;SDS011;2578;51.622;7.046;2023-07-02T05:09:45;8.20;;;7.57;;
5117;SDS011;2578;51.622;7.046;2023-07-02T05:12:13;22.00;;;11.13;;
5117;SDS011;2578;51.622;7.046;2023-07-02T05:14:39;12.33;;;9.90;;
5117;SDS011;2578;51.622;7.046;2023-07-02T05:17:05;6.23;;;5.73;;
5117;SDS011;2578;51.622;7.046;2023-07-02T05:19:30;6.40;;;5.90;;
5117;SDS011;2578;51.622;7.046;2023-07-02T05:21:56;11.43;;;9.23;;
5117;SDS011;2578;51.622;7.046;2023-07-02T05:24:22;18.27;;;9.30;;
5117;SDS011;2578;51.622;7.046;2023-07-02T05:26:47;20.90;;;11.03;;
5117;SDS011;2578;51.622;7.046;2023-07-02T05:29:13;10.00;;;7.83;;
5117;SDS011;2578;51.622;7.046;2023-07-02T05:31:39;11.10;;;9.40;;
5117;SDS011;2578;51.622;7.046;2023-07-02T05:34:05;8.40;;;7.33;;
5117;SDS011;2578;51.622;7.046;2023-07-02T05:36:30;9.80;;;6.33;;
5117;SDS011;2578;51.622;7.046;2023-07-02T05:38:56;14.70;;;8.57;;
5117;SDS011;2578;51.622;7.046;2023-07-02T05:41:22;9.80;;;8.40;;
5117;SDS011;2578;51.622;7.046;2023-07-02T05:43:47;19.60;;;10.07;;
5117;SDS011;2578;51.622;7.046;2023-07-02T05:46:14;8.50;;;7.80;;
5117;SDS011;2578;51.622;7.046;2023-07-02T05:48:40;10.80;;;7.77;;
5117;SDS011;2578;51.622;7.046;2023-07-02T05:51:07;13.00;;;10.17;;
5117;SDS011;2578;51.622;7.046;2023-07-02T05:53:33;19.77;;;10.60;;
5117;SDS011;2578;51.622;7.046;2023-07-02T05:55:59;22.30;;;10.57;;
5117;SDS011;2578;51.622;7.046;2023-07-02T05:58:24;9.83;;;8.97;;
5117;SDS011;2578;51.622;7.046;2023-07-02T06:00:50;20.30;;;9.27;;
5117;SDS011;2578;51.622;7.046;2023-07-02T06:03:16;12.57;;;11.30;;
5117;SDS011;2578;51.622;7.046;2023-07-02T06:05:48;10.40;;;9.60;;
5117;SDS011;2578;51.622;7.046;2023-07-02T06:08:17;12.60;;;11.43;;
5117;SDS011;2578;51.622;7.046;2023-07-02T06:10:43;21.93;;;14.10;;
5117;SDS011;2578;51.622;7.046;2023-07-02T06:13:11;12.03;;;10.93;;
5117;SDS011;2578;51.622;7.046;2023-07-02T06:15:37;15.40;;;14.07;;
5117;SDS011;2578;51.622;7.046;2023-07-02T06:18:02;14.90;;;12.83;;
5117;SDS011;2578;51.622;7.046;2023-07-02T06:20:28;21.30;;;13.40;;
5117;SDS011;2578;51.622;7.046;2023-07-02T06:22:54;16.27;;;14.70;;
5117;SDS011;2578;51.622;7.046;2023-07-02T06:25:19;19.30;;;12.70;;
5117;SDS011;2578;51.622;7.046;2023-07-02T06:27:46;17.03;;;15.37;;
5117;SDS011;2578;51.622;7.046;2023-07-02T06:30:12;19.20;;;16.73;;
5117;SDS011;2578;51.622;7.046;2023-07-02T06:32:37;18.83;;;17.13;;
5117;SDS011;2578;51.622;7.046;2023-07-02T06:35:03;17.50;;;16.00;;
5117;SDS011;2578;51.622;7.046;2023-07-02T06:37:31;15.63;;;14.33;;
5117;SDS011;2578;51.622;7.046;2023-07-02T06:39:57;16.13;;;14.93;;
5117;SDS011;2578;51.622;7.046;2023-07-02T06:42:23;15.97;;;14.77;;
5117;SDS011;2578;51.622;7.046;2023-07-02T06:44:49;17.70;;;16.40;;
5117;SDS011;2578;51.622;7.046;2023-07-02T06:47:15;25.33;;;17.73;;
5117;SDS011;2578;51.622;7.046;2023-07-02T06:49:41;22.80;;;20.50;;
5117;SDS011;2578;51.622;7.046;2023-07-02T06:52:06;20.07;;;18.17;;
5117;SDS011;2578;51.622;7.046;2023-07-02T06:54:32;28.90;;;18.67;;
5117;SDS011;2578;51.622;7.046;2023-07-02T06:56:58;19.23;;;17.60;;
5117;SDS011;2578;51.622;7.046;2023-07-02T06:59:24;20.63;;;18.73;;
5117;SDS011;2578;51.622;7.046;2023-07-02T07:01:50;20.00;;;18.37;;
5117;SDS011;2578;51.622;7.046;2023-07-02T07:04:16;16.80;;;15.70;;
5117;SDS011;2578;51.622;7.046;2023-07-02T07:06:42;19.40;;;17.80;;
5117;SDS011;2578;51.622;7.046;2023-07-02T07:09:08;22.90;;;20.70;;
5117;SDS011;2578;51.622;7.046;2023-07-02T07:11:34;22.73;;;20.70;;
5117;SDS011;2578;51.622;7.046;2023-07-02T07:13:59;27.20;;;23.33;;
5117;SDS011;2578;51.622;7.046;2023-07-02T07:16:25;31.10;;;24.93;;
5117;SDS011;2578;51.622;7.046;2023-07-02T07:18:51;29.30;;;21.27;;
5117;SDS011;2578;51.622;7.046;2023-07-02T07:21:20;18.70;;;17.20;;
5117;SDS011;2578;51.622;7.046;2023-07-02T07:23:45;28.17;;;20.80;;
5117;SDS011;2578;51.622;7.046;2023-07-02T07:26:11;25.87;;;20.90;;
5117;SDS011;2578;51.622;7.046;2023-07-02T07:28:37;19.80;;;18.07;;
5117;SDS011;2578;51.622;7.046;2023-07-02T07:31:02;26.33;;;22.17;;
5117;SDS011;2578;51.622;7.046;2023-07-02T07:33:28;23.70;;;19.87;;
5117;SDS011;2578;51.622;7.046;2023-07-02T07:35:54;20.10;;;18.37;;
5117;SDS011;2578;51.622;7.046;2023-07-02T07:38:20;23.37;;;20.60;;
5117;SDS011;2578;51.622;7.046;2023-07-02T07:40:45;21.17;;;19.17;;
5117;SDS011;2578;51.622;7.046;2023-07-02T07:43:11;18.97;;;17.57;;
5117;SDS011;2578;51.622;7.046;2023-07-02T07:45:37;22.70;;;20.33;;
5117;SDS011;2578;51.622;7.046;2023-07-02T07:48:04;22.17;;;20.20;;
5117;SDS011;2578;51.622;7.046;2023-07-02T07:50:30;25.27;;;22.30;;
5117;SDS011;2578;51.622;7.046;2023-07-02T07:52:56;21.60;;;19.00;;
5117;SDS011;2578;51.622;7.046;2023-07-02T07:55:21;24.10;;;21.07;;
5117;SDS011;2578;51.622;7.046;2023-07-02T07:57:47;31.03;;;22.73;;
5117;SDS011;2578;51.622;7.046;2023-07-02T08:00:13;20.07;;;18.60;;
5117;SDS011;2578;51.622;7.046;2023-07-02T08:02:39;22.53;;;20.30;;
5117;SDS011;2578;51.622;7.046;2023-07-02T08:05:05;24.90;;;22.40;;
5117;SDS011;2578;51.622;7.046;2023-07-02T08:07:32;23.03;;;20.63;;
5117;SDS011;2578;51.622;7.046;2023-07-02T08:09:58;24.50;;;22.40;;
5117;SDS011;2578;51.622;7.046;2023-07-02T08:12:24;21.43;;;19.63;;
5117;SDS011;2578;51.622;7.046;2023-07-02T08:14:51;21.63;;;19.83;;
5117;SDS011;2578;51.622;7.046;2023-07-02T08:17:17;27.73;;;22.47;;
5117;SDS011;2578;51.622;7.046;2023-07-02T08:19:43;23.10;;;20.80;;
5117;SDS011;2578;51.622;7.046;2023-07-02T08:22:09;23.63;;;21.63;;
5117;SDS011;2578;51.622;7.046;2023-07-02T08:24:34;24.37;;;22.20;;
5117;SDS011;2578;51.622;7.046;2023-07-02T08:27:00;25.73;;;23.00;;
5117;SDS011;2578;51.622;7.046;2023-07-02T08:29:32;31.03;;;23.90;;
5117;SDS011;2578;51.622;7.046;2023-07-02T08:31:58;24.97;;;22.73;;
5117;SDS011;2578;51.622;7.046;2023-07-02T08:34:24;25.33;;;22.77;;
5117;SDS011;2578;51.622;7.046;2023-07-02T08:36:50;26.17;;;23.50;;
5117;SDS011;2578;51.622;7.046;2023-07-02T08:39:16;23.27;;;21.17;;
5117;SDS011;2578;51.622;7.046;2023-07-02T08:41:46;26.87;;;24.27;;
5117;SDS011;2578;51.622;7.046;2023-07-02T08:44:14;35.03;;;24.00;;
5117;SDS011;2578;51.622;7.046;2023-07-02T08:46:44;37.67;;;23.67;;
5117;SDS011;2578;51.622;7.046;2023-07-02T08:49:10;21.93;;;20.07;;
5117;SDS011;2578;51.622;7.046;2023-07-02T08:51:36;30.53;;;27.33;;
5117;SDS011;2578;51.622;7.046;2023-07-02T08:54:02;26.97;;;24.23;;
5117;SDS011;2578;51.622;7.046;2023-07-02T08:56:29;22.20;;;20.50;;
5117;SDS011;2578;51.622;7.046;2023-07-02T08:58:55;24.80;;;22.57;;
5117;SDS011;2578;51.622;7.046;2023-07-02T09:01:21;24.43;;;22.33;;
5117;SDS011;2578;51.622;7.046;2023-07-02T09:03:47;28.63;;;25.33;;
5117;SDS011;2578;51.622;7.046;2023-07-02T09:06:16;26.67;;;24.23;;
5117;SDS011;2578;51.622;7.046;2023-07-02T09:08:44;25.57;;;22.90;;
5117;SDS011;2578;51.622;7.046;2023-07-02T09:11:11;23.10;;;21.00;;
5117;SDS011;2578;51.622;7.046;2023-07-02T09:13:48;23.77;;;21.73;;
5117;SDS011;2578;51.622;7.046;2023-07-02T09:21:43;24.90;;;22.70;;
5117;SDS011;2578;51.622;7.046;2023-07-02T09:24:18;27.17;;;24.77;;
5117;SDS011;2578;51.622;7.046;2023-07-02T09:26:46;27.40;;;24.80;;
5117;SDS011;2578;51.622;7.046;2023-07-02T09:29:16;27.77;;;25.03;;
5117;SDS011;2578;51.622;7.046;2023-07-02T09:31:48;26.13;;;23.80;;
5117;SDS011;2578;51.622;7.046;2023-07-02T09:34:15;25.70;;;23.50;;
5117;SDS011;2578;51.622;7.046;2023-07-02T09:36:41;25.20;;;22.70;;
5117;SDS011;2578;51.622;7.046;2023-07-02T09:39:13;23.80;;;21.67;;
5117;SDS011;2578;51.622;7.046;2023-07-02T09:41:43;27.90;;;24.93;;
5117;SDS011;2578;51.622;7.046;2023-07-02T09:44:09;27.00;;;24.73;;
5117;SDS011;2578;51.622;7.046;2023-07-02T09:46:41;27.43;;;25.10;;
5117;SDS011;2578;51.622;7.046;2023-07-02T09:49:11;26.30;;;24.30;;
5117;SDS011;2578;51.622;7.046;2023-07-02T09:51:42;26.73;;;24.70;;
5117;SDS011;2578;51.622;7.046;2023-07-02T09:54:08;28.90;;;26.13;;
5117;SDS011;2578;51.622;7.046;2023-07-02T09:56:35;29.63;;;26.83;;
5117;SDS011;2578;51.622;7.046;2023-07-02T09:59:01;27.33;;;24.97;;
5117;SDS011;2578;51.622;7.046;2023-07-02T10:01:26;24.90;;;22.90;;
5117;SDS011;2578;51.622;7.046;2023-07-02T10:03:52;25.37;;;23.10;;
5117;SDS011;2578;51.622;7.046;2023-07-02T10:06:18;24.60;;;22.60;;
5117;SDS011;2578;51.622;7.046;2023-07-02T10:08:56;27.27;;;24.37;;
5117;SDS011;2578;51.622;7.046;2023-07-02T10:11:32;34.03;;;24.03;;
5117;SDS011;2578;51.622;7.046;2023-07-02T10:14:02;27.73;;;24.63;;
5117;SDS011;2578;51.622;7.046;2023-07-02T10:16:28;24.97;;;22.67;;
5117;SDS011;2578;51.622;7.046;2023-07-02T10:19:18;24.23;;;22.23;;
5117;SDS011;2578;51.622;7.046;2023-07-02T10:21:43;23.73;;;21.80;;
5117;SDS011;2578;51.622;7.046;2023-07-02T10:26:37;25.57;;;23.03;;
5117;SDS011;2578;51.622;7.046;2023-07-02T10:29:03;27.33;;;24.80;;
5117;SDS011;2578;51.622;7.046;2023-07-02T10:31:29;25.00;;;22.57;;
5117;SDS011;2578;51.622;7.046;2023-07-02T10:33:54;26.63;;;24.23;;
5117;SDS011;2578;51.622;7.046;2023-07-02T10:36:24;26.03;;;23.83;;
5117;SDS011;2578;51.622;7.046;2023-07-02T10:38:50;23.43;;;21.73;;
5117;SDS011;2578;51.622;7.046;2023-07-02T10:41:26;25.40;;;23.40;;
5117;SDS011;2578;51.622;7.046;2023-07-02T10:44:10;27.00;;;24.00;;
5117;SDS011;2578;51.622;7.046;2023-07-02T10:46:45;27.80;;;25.23;;
5117;SDS011;2578;51.622;7.046;2023-07-02T10:49:14;33.10;;;24.23;;
5117;SDS011;2578;51.622;7.046;2023-07-02T10:51:42;24.87;;;23.07;;
5117;SDS011;2578;51.622;7.046;2023-07-02T10:54:08;25.67;;;23.53;;
5117;SDS011;2578;51.622;7.046;2023-07-02T10:56:34;28.33;;;25.80;;
5117;SDS011;2578;51.622;7.046;2023-07-02T10:59:00;30.13;;;26.23;;
5117;SDS011;2578;51.622;7.046;2023-07-02T11:03:56;24.70;;;22.80;;
5117;SDS011;2578;51.622;7.046;2023-07-02T11:06:23;27.50;;;24.80;;
5117;SDS011;2578;51.622;7.046;2023-07-02T11:08:49;30.13;;;25.67;;
5117;SDS011;2578;51.622;7.046;2023-07-02T11:11:14;29.17;;;26.33;;
5117;SDS011;2578;51.622;7.046;2023-07-02T11:13:46;26.80;;;23.60;;
5117;SDS011;2578;51.622;7.046;2023-07-02T11:16:24;24.50;;;22.47;;
5117;SDS011;2578;51.622;7.046;2023-07-02T11:19:10;26.80;;;24.40;;
5117;SDS011;2578;51.622;7.046;2023-07-02T11:21:36;29.10;;;26.40;;
5117;SDS011;2578;51.622;7.046;2023-07-02T11:24:04;27.63;;;24.80;;
5117;SDS011;2578;51.622;7.046;2023-07-02T11:26:39;27.77;;;25.23;;
5117;SDS011;2578;51.622;7.046;2023-07-02T11:29:12;28.03;;;25.53;;
5117;SDS011;2578;51.622;7.046;2023-07-02T11:31:43;28.00;;;25.30;;
5117;SDS011;2578;51.622;7.046;2023-07-02T11:34:16;27.10;;;24.40;;
5117;SDS011;2578;51.622;7.046;2023-07-02T11:36:43;26.77;;;24.20;;
5117;SDS011;2578;51.622;7.046;2023-07-02T11:39:09;27.43;;;25.00;;
5117;SDS011;2578;51.622;7.046;2023-07-02T11:41:38;27.27;;;24.63;;
5117;SDS011;2578;51.622;7.046;2023-07-02T11:44:05;26.43;;;23.80;;
5117;SDS011;2578;51.622;7.046;2023-07-02T11:46:31;27.80;;;24.77;;
5117;SDS011;2578;51.622;7.046;2023-07-02T11:48:57;26.90;;;24.47;;
5117;SDS011;2578;51.622;7.046;2023-07-02T11:51:23;37.40;;;25.80;;
5117;SDS011;2578;51.622;7.046;2023-07-02T11:53:48;26.90;;;24.30;;
5117;SDS011;2578;51.622;7.046;2023-07-02T11:56:14;27.67;;;25.20;;
5117;SDS011;2578;51.622;7.046;2023-07-02T11:58:40;28.40;;;25.60;;
5117;SDS011;2578;51.622;7.046;2023-07-02T12:01:06;26.23;;;23.97;;
5117;SDS011;2578;51.622;7.046;2023-07-02T12:03:32;29.07;;;26.20;;
5117;SDS011;2578;51.622;7.046;2023-07-02T12:05:58;28.57;;;25.10;;
5117;SDS011;2578;51.622;7.046;2023-07-02T12:08:24;27.83;;;25.17;;
5117;SDS011;2578;51.622;7.046;2023-07-02T12:10:49;28.60;;;25.53;;
5117;SDS011;2578;51.622;7.046;2023-07-02T12:13:15;28.03;;;25.63;;
5117;SDS011;2578;51.622;7.046;2023-07-02T12:15:41;28.10;;;25.37;;
5117;SDS011;2578;51.622;7.046;2023-07-02T12:18:08;25.87;;;23.67;;
5117;SDS011;2578;51.622;7.046;2023-07-02T12:20:34;26.40;;;24.03;;
5117;SDS011;2578;51.622;7.046;2023-07-02T12:23:00;24.80;;;22.60;;
5117;SDS011;2578;51.622;7.046;2023-07-02T12:25:25;25.97;;;23.80;;
5117;SDS011;2578;51.622;7.046;2023-07-02T12:27:51;24.37;;;22.57;;
5117;SDS011;2578;51.622;7.046;2023-07-02T12:30:18;27.03;;;24.60;;
5117;SDS011;2578;51.622;7.046;2023-07-02T12:32:44;27.47;;;25.13;;
5117;SDS011;2578;51.622;7.046;2023-07-02T12:35:10;25.37;;;23.47;;
5117;SDS011;2578;51.622;7.046;2023-07-02T12:37:46;25.53;;;23.67;;
5117;SDS011;2578;51.622;7.046;2023-07-02T12:40:13;25.43;;;23.20;;
5117;SDS011;2578;51.622;7.046;2023-07-02T12:42:40;28.27;;;25.30;;
5117;SDS011;2578;51.622;7.046;2023-07-02T12:45:07;24.10;;;22.50;;
5117;SDS011;2578;51.622;7.046;2023-07-02T12:47:33;25.50;;;23.40;;
5117;SDS011;2578;51.622;7.046;2023-07-02T12:49:59;28.00;;;25.13;;
5117;SDS011;2578;51.622;7.046;2023-07-02T12:52:25;23.67;;;21.43;;
5117;SDS011;2578;51.622;7.046;2023-07-02T12:54:51;26.47;;;24.17;;
5117;SDS011;2578;51.622;7.046;2023-07-02T12:57:17;32.33;;;23.43;;
5117;SDS011;2578;51.622;7.046;2023-07-02T12:59:43;25.07;;;22.50;;
5117;SDS011;2578;51.622;7.046;2023-07-02T13:02:09;25.27;;;23.23;;
5117;SDS011;2578;51.622;7.046;2023-07-02T13:04:35;26.50;;;24.10;;
5117;SDS011;2578;51.622;7.046;2023-07-02T13:07:01;28.17;;;25.47;;
5117;SDS011;2578;51.622;7.046;2023-07-02T13:09:27;25.50;;;23.07;;
5117;SDS011;2578;51.622;7.046;2023-07-02T13:11:53;26.57;;;24.27;;
5117;SDS011;2578;51.622;7.046;2023-07-02T13:14:19;23.20;;;21.50;;
5117;SDS011;2578;51.622;7.046;2023-07-02T13:16:45;23.50;;;21.80;;
5117;SDS011;2578;51.622;7.046;2023-07-02T13:19:10;28.53;;;25.80;;
5117;SDS011;2578;51.622;7.046;2023-07-02T13:21:36;24.67;;;22.73;;
5117;SDS011;2578;51.622;7.046;2023-07-02T13:24:02;28.33;;;25.40;;
5117;SDS011;2578;51.622;7.046;2023-07-02T13:26:28;30.97;;;26.37;;
5117;SDS011;2578;51.622;7.046;2023-07-02T13:28:54;26.77;;;24.27;;
5117;SDS011;2578;51.622;7.046;2023-07-02T13:31:19;28.10;;;25.70;;
5117;SDS011;2578;51.622;7.046;2023-07-02T13:33:45;26.37;;;24.13;;
5117;SDS011;2578;51.622;7.046;2023-07-02T13:36:11;28.00;;;25.17;;
5117;SDS011;2578;51.622;7.046;2023-07-02T13:38:37;26.47;;;24.27;;
5117;SDS011;2578;51.622;7.046;2023-07-02T13:41:03;30.80;;;27.50;;
5117;SDS011;2578;51.622;7.046;2023-07-02T13:43:29;26.47;;;24.20;;
5117;SDS011;2578;51.622;7.046;2023-07-02T13:45:55;27.80;;;24.90;;
5117;SDS011;2578;51.622;7.046;2023-07-02T13:48:21;27.70;;;25.20;;
5117;SDS011;2578;51.622;7.046;2023-07-02T13:50:46;24.90;;;22.97;;
5117;SDS011;2578;51.622;7.046;2023-07-02T13:53:12;28.77;;;25.77;;
5117;SDS011;2578;51.622;7.046;2023-07-02T13:55:38;28.97;;;26.00;;
5117;SDS011;2578;51.622;7.046;2023-07-02T13:58:03;27.17;;;24.27;;
5117;SDS011;2578;51.622;7.046;2023-07-02T14:00:29;27.13;;;24.73;;
5117;SDS011;2578;51.622;7.046;2023-07-02T14:02:55;29.50;;;26.63;;
5117;SDS011;2578;51.622;7.046;2023-07-02T14:05:21;25.73;;;23.73;;
5117;SDS011;2578;51.622;7.046;2023-07-02T14:07:47;25.80;;;23.80;;
5117;SDS011;2578;51.622;7.046;2023-07-02T14:10:13;26.67;;;24.30;;
5117;SDS011;2578;51.622;7.046;2023-07-02T14:12:40;25.53;;;23.53;;
5117;SDS011;2578;51.622;7.046;2023-07-02T14:15:06;29.73;;;26.53;;
5117;SDS011;2578;51.622;7.046;2023-07-02T14:17:34;27.07;;;24.77;;
5117;SDS011;2578;51.622;7.046;2023-07-02T14:20:01;30.67;;;25.37;;
5117;SDS011;2578;51.622;7.046;2023-07-02T14:22:28;27.60;;;25.30;;
5117;SDS011;2578;51.622;7.046;2023-07-02T14:24:54;25.33;;;23.33;;
5117;SDS011;2578;51.622;7.046;2023-07-02T14:27:20;26.07;;;24.07;;
5117;SDS011;2578;51.622;7.046;2023-07-02T14:29:45;25.00;;;23.10;;
5117;SDS011;2578;51.622;7.046;2023-07-02T14:32:14;25.70;;;23.57;;
5117;SDS011;2578;51.622;7.046;2023-07-02T14:34:40;25.30;;;23.30;;
5117;SDS011;2578;51.622;7.046;2023-07-02T14:37:06;27.77;;;25.03;;
5117;SDS011;2578;51.622;7.046;2023-07-02T14:39:32;26.80;;;24.40;;
5117;SDS011;2578;51.622;7.046;2023-07-02T14:41:58;26.97;;;24.23;;
5117;SDS011;2578;51.622;7.046;2023-07-02T14:44:24;29.30;;;26.50;;
5117;SDS011;2578;51.622;7.046;2023-07-02T14:46:50;28.67;;;26.10;;
5117;SDS011;2578;51.622;7.046;2023-07-02T14:49:16;26.73;;;24.33;;
5117;SDS011;2578;51.622;7.046;2023-07-02T14:51:41;24.50;;;22.27;;
5117;SDS011;2578;51.622;7.046;2023-07-02T14:54:08;28.13;;;24.57;;
5117;SDS011;2578;51.622;7.046;2023-07-02T14:56:34;28.27;;;24.87;;
5117;SDS011;2578;51.622;7.046;2023-07-02T14:59:03;28.97;;;26.27;;
5117;SDS011;2578;51.622;7.046;2023-07-02T15:01:29;24.10;;;22.03;;
5117;SDS011;2578;51.622;7.046;2023-07-02T15:03:55;25.63;;;23.53;;
5117;SDS011;2578;51.622;7.046;2023-07-02T15:06:21;25.70;;;23.60;;